Time,TemperatureF,DewpointF,PressureIn,WindDirection,WindDirectionDegrees,WindSpeedMPH,WindSpeedGustMPH,Humidity,HourlyPrecipIn,Conditions,Clouds,dailyrainin,SolarRadiationWatts/m^2,SoftwareType,DateUTC
2013-04-03 00:02:00,43.0,19.0,-100.00,WNW,282,10.0,18.0,38,0.00,,,0.00,0.000000,,2013-04-03 07:02:00,
2013-04-03 00:12:00,43.0,19.0,-100.00,WNW,282,10.0,18.0,38,0.00,,,0.00,0.000000,,2013-04-03 07:12:00,
2013-04-03 00:22:00,43.0,19.0,-100.00,WNW,282,10.0,18.0,38,0.00,,,0.00,0.000000,,2013-04-03 07:22:00,
2013-04-03 00:32:00,43.0,19.0,-100.00,WNW,282,10.0,18.0,38,0.00,,,0.00,0.000000,,2013-04-03 07:32:00,
2013-04-03 01:02:00,43.0,20.0,-100.00,West,274,8.0,17.0,39,0.00,,,0.00,0.000000,,2013-04-03 08:02:00,
2013-04-03 01:12:00,43.0,20.0,-100.00,West,274,8.0,17.0,39,0.00,,,0.00,0.000000,,2013-04-03 08:12:00,
2013-04-03 01:22:00,43.0,20.0,-100.00,West,274,8.0,17.0,39,0.00,,,0.00,0.000000,,2013-04-03 08:22:00,
2013-04-03 01:32:00,43.0,20.0,-100.00,West,274,8.0,17.0,39,0.00,,,0.00,0.000000,,2013-04-03 08:32:00,
2013-04-03 02:02:00,42.0,18.0,-100.00,West,267,10.0,16.0,37,0.00,,,0.00,0.000000,,2013-04-03 09:02:00,
2013-04-03 02:12:00,42.0,18.0,-100.00,West,267,10.0,16.0,37,0.00,,,0.00,0.000000,,2013-04-03 09:12:00,
2013-04-03 02:22:00,42.0,18.0,-100.00,West,267,10.0,16.0,37,0.00,,,0.00,0.000000,,2013-04-03 09:22:00,
2013-04-03 02:32:00,42.0,18.0,-100.00,West,267,10.0,16.0,37,0.00,,,0.00,0.000000,,2013-04-03 09:32:00,
2013-04-03 03:02:00,42.0,18.0,-100.00,West,260,8.0,17.0,38,0.00,,,0.00,0.000000,,2013-04-03 10:02:00,
2013-04-03 03:12:00,42.0,18.0,-100.00,West,260,8.0,17.0,38,0.00,,,0.00,0.000000,,2013-04-03 10:12:00,
2013-04-03 03:22:00,42.0,18.0,-100.00,West,260,8.0,17.0,38,0.00,,,0.00,0.000000,,2013-04-03 10:22:00,
2013-04-03 03:33:00,42.0,18.0,-100.00,West,260,8.0,17.0,38,0.00,,,0.00,0.000000,,2013-04-03 10:33:00,
2013-04-03 04:02:00,42.0,19.0,-100.00,North,0,5.0,17.0,40,0.00,,,0.00,0.000000,,2013-04-03 11:02:00,
2013-04-03 04:12:00,42.0,19.0,-100.00,North,0,5.0,17.0,40,0.00,,,0.00,0.000000,,2013-04-03 11:12:00,
2013-04-03 04:22:00,42.0,19.0,-100.00,North,0,5.0,17.0,40,0.00,,,0.00,0.000000,,2013-04-03 11:22:00,
2013-04-03 04:32:00,42.0,19.0,-100.00,North,0,5.0,17.0,40,0.00,,,0.00,0.000000,,2013-04-03 11:32:00,
2013-04-03 05:02:00,41.0,20.0,-100.00,NNE,26,2.0,12.0,43,0.00,,,0.00,0.000000,,2013-04-03 12:02:00,
2013-04-03 05:12:00,41.0,20.0,-100.00,NNE,26,2.0,12.0,43,0.00,,,0.00,0.000000,,2013-04-03 12:12:00,
2013-04-03 05:22:00,41.0,20.0,-100.00,NNE,26,2.0,12.0,43,0.00,,,0.00,0.000000,,2013-04-03 12:22:00,
2013-04-03 05:32:00,41.0,20.0,-100.00,NNE,26,2.0,12.0,43,0.00,,,0.00,0.000000,,2013-04-03 12:32:00,
2013-04-03 06:02:00,42.0,20.0,-100.00,NW,322,2.0,9.0,41,0.00,,,0.00,0.000000,,2013-04-03 13:02:00,
2013-04-03 06:12:00,42.0,20.0,-100.00,NW,322,2.0,9.0,41,0.00,,,0.00,0.000000,,2013-04-03 13:12:00,
2013-04-03 06:22:00,42.0,20.0,-100.00,NW,322,2.0,9.0,41,0.00,,,0.00,0.000000,,2013-04-03 13:22:00,
2013-04-03 06:32:00,42.0,20.0,-100.00,NW,322,2.0,9.0,41,0.00,,,0.00,0.000000,,2013-04-03 13:32:00,
2013-04-03 07:02:00,44.0,22.0,-100.00,NNW,329,1.0,8.0,42,0.00,,,0.00,16.000000,,2013-04-03 14:02:00,
2013-04-03 07:12:00,44.0,22.0,-100.00,NNW,329,1.0,8.0,42,0.00,,,0.00,16.000000,,2013-04-03 14:12:00,
2013-04-03 07:22:00,44.0,22.0,-100.00,NNW,329,1.0,8.0,42,0.00,,,0.00,16.000000,,2013-04-03 14:22:00,
2013-04-03 07:32:00,44.0,22.0,-100.00,NNW,329,1.0,8.0,42,0.00,,,0.00,16.000000,,2013-04-03 14:32:00,
2013-04-03 08:02:00,50.0,25.0,-100.00,West,266,2.0,6.0,37,0.00,,,0.00,202.000000,,2013-04-03 15:02:00,
2013-04-03 08:12:00,50.0,25.0,-100.00,West,266,2.0,6.0,37,0.00,,,0.00,202.000000,,2013-04-03 15:12:00,
2013-04-03 08:22:00,50.0,25.0,-100.00,West,266,2.0,6.0,37,0.00,,,0.00,202.000000,,2013-04-03 15:22:00,
2013-04-03 08:32:00,50.0,25.0,-100.00,West,266,2.0,6.0,37,0.00,,,0.00,202.000000,,2013-04-03 15:32:00,
2013-04-03 09:03:00,55.0,26.0,-100.00,West,272,3.0,7.0,32,0.00,,,0.00,530.000000,,2013-04-03 16:03:00,
2013-04-03 09:12:00,55.0,26.0,-100.00,West,272,3.0,7.0,32,0.00,,,0.00,530.000000,,2013-04-03 16:12:00,
2013-04-03 09:23:00,55.0,26.0,-100.00,West,272,3.0,7.0,32,0.00,,,0.00,530.000000,,2013-04-03 16:23:00,
2013-04-03 09:32:00,55.0,26.0,-100.00,West,272,3.0,7.0,32,0.00,,,0.00,530.000000,,2013-04-03 16:32:00,
2013-04-03 10:02:00,55.0,24.0,-100.00,SSE,157,5.0,10.0,30,0.00,,,0.00,808.000000,,2013-04-03 17:02:00,
2013-04-03 10:13:00,55.0,24.0,-100.00,SSE,157,5.0,10.0,30,0.00,,,0.00,808.000000,,2013-04-03 17:13:00,
2013-04-03 10:22:00,55.0,24.0,-100.00,SSE,157,5.0,10.0,30,0.00,,,0.00,808.000000,,2013-04-03 17:22:00,
2013-04-03 10:32:00,55.0,24.0,-100.00,SSE,157,5.0,10.0,30,0.00,,,0.00,808.000000,,2013-04-03 17:32:00,
2013-04-03 10:54:00,58.0,24.0,-100.00,South,175,5.0,10.0,27,0.00,,,0.00,1027.000000,,2013-04-03 17:54:00,
2013-04-03 11:02:00,58.0,24.0,-100.00,South,175,5.0,10.0,27,0.00,,,0.00,1027.000000,,2013-04-03 18:02:00,
2013-04-03 11:12:00,58.0,24.0,-100.00,South,175,5.0,10.0,27,0.00,,,0.00,1027.000000,,2013-04-03 18:12:00,
2013-04-03 11:22:00,58.0,24.0,-100.00,South,175,5.0,10.0,27,0.00,,,0.00,1027.000000,,2013-04-03 18:22:00,
2013-04-03 11:32:00,58.0,24.0,-100.00,South,175,5.0,10.0,27,0.00,,,0.00,1027.000000,,2013-04-03 18:32:00,
2013-04-03 12:02:00,61.0,25.0,-100.00,SSE,152,4.0,10.0,25,0.00,,,0.00,1175.000000,,2013-04-03 19:02:00,
2013-04-03 12:12:00,61.0,25.0,-100.00,SSE,152,4.0,10.0,25,0.00,,,0.00,1175.000000,,2013-04-03 19:12:00,
2013-04-03 12:22:00,61.0,25.0,-100.00,SSE,152,4.0,10.0,25,0.00,,,0.00,1175.000000,,2013-04-03 19:22:00,
2013-04-03 12:32:00,61.0,25.0,-100.00,SSE,152,4.0,10.0,25,0.00,,,0.00,1175.000000,,2013-04-03 19:32:00,
2013-04-03 13:12:00,63.0,26.0,-100.00,South,189,4.0,11.0,24,0.00,,,0.00,1238.000000,,2013-04-03 20:12:00,
2013-04-03 13:22:00,63.0,26.0,-100.00,South,189,4.0,11.0,24,0.00,,,0.00,1238.000000,,2013-04-03 20:22:00,
2013-04-03 13:32:00,63.0,26.0,-100.00,South,189,4.0,11.0,24,0.00,,,0.00,1238.000000,,2013-04-03 20:32:00,
2013-04-03 14:02:00,63.0,27.0,-100.00,South,186,4.0,11.0,25,0.00,,,0.00,1226.000000,,2013-04-03 21:02:00,
2013-04-03 14:12:00,63.0,27.0,-100.00,South,186,4.0,11.0,25,0.00,,,0.00,1226.000000,,2013-04-03 21:12:00,
2013-04-03 14:22:00,63.0,27.0,-100.00,South,186,4.0,11.0,25,0.00,,,0.00,1226.000000,,2013-04-03 21:22:00,
2013-04-03 14:32:00,63.0,27.0,-100.00,South,186,4.0,11.0,25,0.00,,,0.00,1226.000000,,2013-04-03 21:32:00,
2013-04-03 15:02:00,67.0,27.0,-100.00,SW,222,4.0,11.0,22,0.00,,,0.00,1130.000000,,2013-04-03 22:02:00,
2013-04-03 15:12:00,67.0,27.0,-100.00,SW,222,4.0,11.0,22,0.00,,,0.00,1130.000000,,2013-04-03 22:12:00,
2013-04-03 15:22:00,67.0,27.0,-100.00,SW,222,4.0,11.0,22,0.00,,,0.00,1130.000000,,2013-04-03 22:22:00,
2013-04-03 15:32:00,67.0,27.0,-100.00,SW,222,4.0,11.0,22,0.00,,,0.00,1130.000000,,2013-04-03 22:32:00,
2013-04-03 16:02:00,69.0,25.0,-100.00,WSW,247,4.0,11.0,19,0.00,,,0.00,963.000000,,2013-04-03 23:02:00,
2013-04-03 16:12:00,69.0,25.0,-100.00,WSW,247,4.0,11.0,19,0.00,,,0.00,963.000000,,2013-04-03 23:12:00,
2013-04-03 16:22:00,69.0,25.0,-100.00,WSW,247,4.0,11.0,19,0.00,,,0.00,963.000000,,2013-04-03 23:22:00,
2013-04-03 16:32:00,69.0,25.0,-100.00,WSW,247,4.0,11.0,19,0.00,,,0.00,963.000000,,2013-04-03 23:32:00,
2013-04-03 17:02:00,66.0,24.0,-100.00,SW,233,5.0,11.0,20,0.00,,,0.00,729.000000,,2013-04-04 00:02:00,
2013-04-03 17:12:00,66.0,24.0,-100.00,SW,233,5.0,11.0,20,0.00,,,0.00,729.000000,,2013-04-04 00:12:00,
2013-04-03 17:22:00,66.0,24.0,-100.00,SW,233,5.0,11.0,20,0.00,,,0.00,729.000000,,2013-04-04 00:22:00,
2013-04-03 17:32:00,66.0,24.0,-100.00,SW,233,5.0,11.0,20,0.00,,,0.00,729.000000,,2013-04-04 00:32:00,
2013-04-03 18:02:00,59.0,23.0,-100.00,SSW,200,2.0,9.0,25,0.00,,,0.00,444.000000,,2013-04-04 01:02:00,
2013-04-03 18:11:00,59.0,23.0,-100.00,SSW,200,2.0,9.0,25,0.00,,,0.00,444.000000,,2013-04-04 01:11:00,
2013-04-03 18:22:00,59.0,23.0,-100.00,SSW,200,2.0,9.0,25,0.00,,,0.00,444.000000,,2013-04-04 01:22:00,
2013-04-03 18:32:00,59.0,23.0,-100.00,SSW,200,2.0,9.0,25,0.00,,,0.00,444.000000,,2013-04-04 01:32:00,
2013-04-03 19:02:00,53.0,23.0,-100.00,NW,319,2.0,9.0,31,0.00,,,0.00,146.000000,,2013-04-04 02:02:00,
2013-04-03 19:12:00,53.0,23.0,-100.00,NW,319,2.0,9.0,31,0.00,,,0.00,146.000000,,2013-04-04 02:12:00,
2013-04-03 19:22:00,53.0,23.0,-100.00,NW,319,2.0,9.0,31,0.00,,,0.00,146.000000,,2013-04-04 02:22:00,
2013-04-03 19:32:00,53.0,23.0,-100.00,NW,319,2.0,9.0,31,0.00,,,0.00,146.000000,,2013-04-04 02:32:00,
2013-04-03 20:02:00,48.0,20.0,-100.00,NNE,14,6.0,9.0,33,0.00,,,0.00,3.000000,,2013-04-04 03:02:00,
2013-04-03 20:11:00,48.0,20.0,-100.00,NNE,14,6.0,9.0,33,0.00,,,0.00,3.000000,,2013-04-04 03:11:00,
2013-04-03 20:22:00,48.0,20.0,-100.00,NNE,14,6.0,9.0,33,0.00,,,0.00,3.000000,,2013-04-04 03:22:00,
2013-04-03 20:33:00,48.0,20.0,-100.00,NNE,14,6.0,9.0,33,0.00,,,0.00,3.000000,,2013-04-04 03:33:00,
2013-04-03 21:02:00,48.0,19.0,-100.00,NE,38,4.0,6.0,31,0.00,,,0.00,0.000000,,2013-04-04 04:02:00,
2013-04-03 21:12:00,48.0,19.0,-100.00,NE,38,4.0,6.0,31,0.00,,,0.00,0.000000,,2013-04-04 04:12:00,
2013-04-03 21:22:00,48.0,19.0,-100.00,NE,38,4.0,6.0,31,0.00,,,0.00,0.000000,,2013-04-04 04:22:00,
2013-04-03 21:33:00,48.0,19.0,-100.00,NE,38,4.0,6.0,31,0.00,,,0.00,0.000000,,2013-04-04 04:33:00,
2013-04-03 22:02:00,48.0,19.0,-100.00,NNW,347,3.0,7.0,31,0.00,,,0.00,0.000000,,2013-04-04 05:02:00,
2013-04-03 22:12:00,48.0,19.0,-100.00,NNW,347,3.0,7.0,31,0.00,,,0.00,0.000000,,2013-04-04 05:12:00,
2013-04-03 22:22:00,48.0,19.0,-100.00,NNW,347,3.0,7.0,31,0.00,,,0.00,0.000000,,2013-04-04 05:22:00,
2013-04-03 22:32:00,48.0,19.0,-100.00,NNW,347,3.0,7.0,31,0.00,,,0.00,0.000000,,2013-04-04 05:32:00,
2013-04-03 23:02:00,48.0,16.0,-100.00,NNE,33,3.0,6.0,27,0.00,,,0.00,0.000000,,2013-04-04 06:02:00,
2013-04-03 23:12:00,48.0,16.0,-100.00,NNE,33,3.0,6.0,27,0.00,,,0.00,0.000000,,2013-04-04 06:12:00,
2013-04-03 23:22:00,48.0,16.0,-100.00,NNE,33,3.0,6.0,27,0.00,,,0.00,0.000000,,2013-04-04 06:22:00,
2013-04-03 23:32:00,48.0,16.0,-100.00,NNE,33,3.0,6.0,27,0.00,,,0.00,0.000000,,2013-04-04 06:32:00,